Time;durP1;ratioP1;P1;durP2;ratioP2;P2;SDS_P1;SDS_P2;PMS_P1;PMS_P2;Temp;Humidity;BMP_temperature;BMP_pressure;BME280_temperature;BME280_humidity;BME280_pressure;Samples;Min_cycle;Max_cycle;Signal;HPM_P1;HPM_P2
2023/03/31 00:01:40;;;;;;;6.63;1.60;;;;;;;13.05;61.97;98087.41;4985272;28;20226;-58
2023/03/31 00:04:08;;;;;;;6.43;1.70;;;;;;;13.18;61.05;98081.53;4982569;28;20232;-58
2023/03/31 00:06:37;;;;;;;7.30;1.80;;;;;;;13.39;59.48;98078.97;4986645;28;20222;-54
2023/03/31 00:09:04;;;;;;;10.33;2.03;;;;;;;13.46;60.13;98065.97;4986091;28;20284;-58
2023/03/31 00:11:32;;;;;;;9.90;2.20;;;;;;;13.38;61.67;98058.19;4986763;28;20265;-58
2023/03/31 00:13:59;;;;;;;9.80;2.07;;;;;;;13.27;61.50;98062.88;4982417;28;20237;-56
2023/03/31 00:16:26;;;;;;;8.53;1.93;;;;;;;13.19;61.63;98065.63;4986581;28;20951;-57
2023/03/31 00:18:54;;;;;;;4.50;1.57;;;;;;;13.12;62.75;98044.56;4985402;28;20628;-57
2023/03/31 00:21:28;;;;;;;11.20;2.70;;;;;;;13.12;62.43;98044.56;4987183;28;20652;-58
2023/03/31 00:24:01;;;;;;;11.73;1.80;;;;;;;13.07;63.08;98043.50;4985371;28;20771;-58
2023/03/31 00:26:28;;;;;;;12.97;2.50;;;;;;;12.98;62.26;98040.97;5001826;28;20246;-59
2023/03/31 00:28:57;;;;;;;7.50;1.87;;;;;;;13.10;61.14;98035.28;4984046;28;20247;-59
2023/03/31 00:31:25;;;;;;;10.10;1.87;;;;;;;13.08;61.13;98032.03;5004566;28;21215;-59
2023/03/31 00:33:53;;;;;;;6.37;1.90;;;;;;;13.10;62.26;98030.03;4981040;28;20216;-59
2023/03/31 00:36:25;;;;;;;4.97;1.57;;;;;;;13.06;62.97;98031.38;4998794;28;20640;-57
2023/03/31 00:38:53;;;;;;;6.93;2.33;;;;;;;13.03;62.66;98022.06;4978681;28;20514;-58
2023/03/31 00:41:21;;;;;;;6.93;1.80;;;;;;;13.03;61.43;98008.16;4984851;28;20563;-58
2023/03/31 00:44:21;;;;;;;8.50;2.00;;;;;;;12.96;62.21;98010.69;4981266;28;20710;-57
2023/03/31 00:46:52;;;;;;;7.53;1.90;;;;;;;12.96;61.25;98005.44;4954125;28;20576;-58
2023/03/31 00:49:25;;;;;;;8.80;1.90;;;;;;;12.95;61.59;98014.31;4980195;28;20232;-56
2023/03/31 00:51:54;;;;;;;7.33;1.87;;;;;;;13.01;61.86;98026.69;4971371;28;20868;-57
2023/03/31 00:54:25;;;;;;;6.43;1.97;;;;;;;13.19;59.88;98020.25;4984409;28;20674;-58
2023/03/31 00:56:57;;;;;;;6.27;2.23;;;;;;;13.13;60.55;98017.38;4982618;28;20244;-55
2023/03/31 00:59:28;;;;;;;10.13;2.20;;;;;;;13.14;62.32;98033.91;4975548;28;20218;-58
2023/03/31 01:01:58;;;;;;;6.73;1.80;;;;;;;13.23;60.55;98106.22;4998052;28;20237;-57
2023/03/31 01:04:25;;;;;;;7.80;2.00;;;;;;;13.10;62.12;98104.19;4985598;28;20231;-57
2023/03/31 01:06:59;;;;;;;11.33;2.40;;;;;;;12.80;67.57;98105.97;4981757;28;20647;-56
2023/03/31 01:09:33;;;;;;;7.73;2.00;;;;;;;12.35;71.68;98096.19;4987427;28;20326;-56
2023/03/31 01:12:03;;;;;;;4.00;1.90;;;;;;;12.15;74.29;98111.56;4981652;28;20239;-58
2023/03/31 01:14:32;;;;;;;6.70;2.60;;;;;;;11.61;81.47;98076.53;4974623;28;20631;-57
2023/03/31 01:16:59;;;;;;;9.03;2.23;;;;;;;11.22;86.10;98067.69;4983334;28;20292;-58
2023/03/31 01:19:36;;;;;;;7.87;2.10;;;;;;;11.04;88.83;98048.84;4987393;28;20240;-58
2023/03/31 01:22:44;;;;;;;8.27;2.30;;;;;;;10.82;94.60;98043.34;4979318;28;20241;-58
2023/03/31 01:25:54;;;;;;;10.60;2.67;;;;;;;10.69;94.76;98029.97;4982371;28;20230;-58
2023/03/31 01:28:32;;;;;;;13.60;2.70;;;;;;;10.65;96.69;98010.41;5000653;28;20599;-58
2023/03/31 01:31:26;;;;;;;6.27;2.20;;;;;;;10.59;96.34;97998.84;4987187;28;20802;-58
2023/03/31 01:34:30;;;;;;;11.57;3.00;;;;;;;10.56;95.17;97997.38;4993879;28;20278;-58
2023/03/31 01:37:29;;;;;;;10.57;2.30;;;;;;;10.53;96.81;97989.88;4957047;28;20569;-58
2023/03/31 01:40:25;;;;;;;7.37;2.43;;;;;;;10.58;93.57;97973.75;4977372;28;20881;-57
2023/03/31 01:42:56;;;;;;;8.73;2.63;;;;;;;10.60;92.80;97969.16;4984003;28;20654;-57
2023/03/31 01:45:34;;;;;;;8.43;2.57;;;;;;;10.59;92.60;97967.53;4987515;28;20284;-57
2023/03/31 01:48:07;;;;;;;7.10;2.23;;;;;;;10.62;91.37;97948.91;4986010;28;20241;-56
2023/03/31 01:50:39;;;;;;;10.80;2.37;;;;;;;10.61;92.07;97953.31;4988077;28;20238;-58
2023/03/31 01:53:12;;;;;;;12.00;3.13;;;;;;;10.64;91.75;97933.91;4988195;28;20286;-57
2023/03/31 01:55:46;;;;;;;10.20;2.47;;;;;;;10.66;89.27;97920.69;4988950;28;20314;-56
2023/03/31 01:58:18;;;;;;;6.87;2.50;;;;;;;10.62;90.54;97907.16;4984904;28;20233;-58
2023/03/31 02:00:50;;;;;;;6.67;2.40;;;;;;;10.61;91.00;97908.13;4989170;28;20290;-57
2023/03/31 02:03:21;;;;;;;8.30;2.53;;;;;;;10.62;91.80;97900.16;4990592;28;20253;-57
2023/03/31 02:05:52;;;;;;;9.53;3.03;;;;;;;10.63;90.00;97887.91;4986512;28;20253;-58
2023/03/31 02:08:23;;;;;;;9.83;2.80;;;;;;;10.67;88.92;97883.97;4976818;28;20240;-58
2023/03/31 02:10:53;;;;;;;6.30;2.83;;;;;;;10.72;85.89;97854.75;4983861;28;20232;-58
2023/03/31 02:13:23;;;;;;;10.17;2.97;;;;;;;10.78;84.91;97836.59;4989677;28;20716;-57
2023/03/31 02:15:53;;;;;;;7.30;2.90;;;;;;;10.82;84.63;97821.44;4987221;28;20225;-57
2023/03/31 02:18:24;;;;;;;11.27;3.10;;;;;;;10.86;84.09;97801.81;4994936;28;20227;-58
2023/03/31 02:20:56;;;;;;;5.67;2.33;;;;;;;10.86;84.42;97791.38;4988686;28;20230;-58
2023/03/31 02:23:28;;;;;;;7.07;2.47;;;;;;;10.83;82.88;97796.94;4988393;28;20268;-58
2023/03/31 02:26:02;;;;;;;8.13;2.70;;;;;;;10.84;81.97;97795.97;4988950;28;20723;-57
2023/03/31 02:28:30;;;;;;;9.20;2.90;;;;;;;10.85;81.67;97784.53;4990136;28;20234;-57
2023/03/31 02:31:07;;;;;;;12.10;3.20;;;;;;;10.88;83.34;97778.16;4983196;28;20292;-57
2023/03/31 02:33:34;;;;;;;8.57;2.57;;;;;;;10.83;83.87;97780.47;4984491;28;20247;-58
2023/03/31 02:36:01;;;;;;;8.60;2.57;;;;;;;10.80;82.64;97754.69;4985896;28;20233;-58
2023/03/31 02:38:30;;;;;;;8.70;2.53;;;;;;;10.79;83.22;97764.34;4985901;28;20236;-58
2023/03/31 02:40:58;;;;;;;5.17;2.30;;;;;;;10.84;80.11;97753.38;4984153;28;20243;-56
2023/03/31 02:43:25;;;;;;;6.27;2.80;;;;;;;10.85;81.32;97747.16;4983834;28;20325;-58
2023/03/31 02:45:51;;;;;;;9.17;3.27;;;;;;;10.83;80.26;97734.28;4986368;28;20225;-57
2023/03/31 02:48:21;;;;;;;9.80;3.20;;;;;;;10.84;81.80;97730.69;4986933;28;20237;-55
2023/03/31 02:51:26;;;;;;;8.00;3.77;;;;;;;10.83;80.37;97713.41;4984159;28;20237;-56
2023/03/31 02:54:10;;;;;;;6.13;3.07;;;;;;;10.77;81.41;97683.59;4982654;28;20229;-57
2023/03/31 02:57:20;;;;;;;8.83;3.53;;;;;;;10.72;80.44;97679.88;4982966;28;20232;-57
2023/03/31 02:59:57;;;;;;;11.23;3.37;;;;;;;10.69;81.17;97661.97;4987089;28;20229;-58
2023/03/31 03:05:22;;;;;;;7.60;4.10;;;;;;;10.57;79.78;97653.75;5145800;23;20218;-57
2023/03/31 03:08:19;;;;;;;12.67;3.43;;;;;;;10.56;80.08;97631.25;4986011;28;20234;-56
2023/03/31 03:10:59;;;;;;;7.90;3.43;;;;;;;10.59;78.75;97620.47;4986054;28;20274;-55
2023/03/31 03:13:35;;;;;;;11.53;4.03;;;;;;;10.57;79.81;97612.78;5000560;28;20746;-58
2023/03/31 03:16:05;;;;;;;11.03;4.13;;;;;;;10.60;79.05;97606.44;4985135;28;20289;-58
2023/03/31 03:18:32;;;;;;;9.53;4.00;;;;;;;10.52;79.54;97585.63;4986626;28;20228;-58
2023/03/31 03:20:59;;;;;;;7.47;4.10;;;;;;;10.55;78.88;97562.56;4984339;28;20625;-57
2023/03/31 03:23:25;;;;;;;8.37;4.30;;;;;;;10.64;78.89;97558.09;4987971;28;20239;-56
2023/03/31 03:25:52;;;;;;;8.77;3.67;;;;;;;10.65;77.82;97536.22;4984835;28;20237;-56
2023/03/31 03:28:18;;;;;;;9.60;4.40;;;;;;;10.71;77.41;97511.22;4987913;28;20236;-57
2023/03/31 03:33:36;;;;;;;8.50;3.70;;;;;;;10.70;78.54;97478.28;4961993;28;20876;-55
2023/03/31 03:36:06;;;;;;;7.17;3.70;;;;;;;10.72;79.17;97465.88;4963560;28;20721;-55
2023/03/31 03:38:33;;;;;;;10.33;4.00;;;;;;;10.75;78.80;97474.13;4966658;28;20238;-56
2023/03/31 03:41:00;;;;;;;6.23;3.73;;;;;;;10.82;78.37;97486.47;4965005;28;20234;-55
2023/03/31 03:43:26;;;;;;;11.53;4.13;;;;;;;10.92;77.92;97510.50;4968335;28;20229;-54
2023/03/31 03:45:53;;;;;;;12.33;4.53;;;;;;;11.06;77.33;97507.06;4965071;28;20232;-56
2023/03/31 03:48:20;;;;;;;10.43;4.13;;;;;;;11.18;76.80;97510.03;4969909;28;20233;-55
2023/03/31 03:50:48;;;;;;;13.37;4.13;;;;;;;11.25;75.74;97507.50;4968053;28;20235;-54
2023/03/31 03:53:15;;;;;;;9.57;4.50;;;;;;;11.44;73.14;97497.47;4966619;28;20240;-55
2023/03/31 03:55:42;;;;;;;11.67;4.90;;;;;;;11.57;72.76;97507.25;4967952;28;20312;-55
2023/03/31 03:58:08;;;;;;;11.17;4.93;;;;;;;11.82;71.20;97518.97;4964261;28;33539;-55
2023/03/31 04:00:35;;;;;;;10.57;4.50;;;;;;;11.92;70.37;97529.13;4969331;28;20248;-55
2023/03/31 04:03:01;;;;;;;11.27;5.03;;;;;;;12.04;69.98;97523.41;4963454;28;20241;-55
2023/03/31 04:05:28;;;;;;;11.10;4.37;;;;;;;12.07;70.88;97530.91;4966375;28;20289;-56
2023/03/31 04:07:56;;;;;;;12.50;5.00;;;;;;;12.10;69.84;97526.13;4962897;28;20303;-54
2023/03/31 04:10:22;;;;;;;11.90;4.83;;;;;;;12.17;69.79;97536.63;4963966;28;20241;-56
2023/03/31 04:12:49;;;;;;;12.30;4.63;;;;;;;12.32;69.51;97541.78;4967531;28;20286;-56
2023/03/31 04:15:16;;;;;;;13.87;5.10;;;;;;;12.35;69.59;97546.63;4966689;28;20232;-56
2023/03/31 04:17:47;;;;;;;16.03;6.03;;;;;;;12.25;73.20;97540.91;4967438;28;20283;-55
2023/03/31 04:20:14;;;;;;;11.47;5.50;;;;;;;12.17;74.70;97547.09;4964518;28;20324;-55
2023/03/31 04:22:40;;;;;;;11.83;5.33;;;;;;;12.10;76.19;97536.56;4964537;28;20285;-56
2023/03/31 04:25:13;;;;;;;11.93;5.53;;;;;;;12.06;76.25;97524.03;4963483;28;20240;-55
2023/03/31 04:27:45;;;;;;;10.30;4.70;;;;;;;12.01;76.58;97518.56;4965777;28;20231;-54
2023/03/31 04:30:13;;;;;;;11.93;5.00;;;;;;;11.96;78.73;97508.66;4961628;28;20717;-54
2023/03/31 04:32:39;;;;;;;10.93;4.97;;;;;;;11.86;79.67;97493.25;4966058;28;20237;-55
2023/03/31 04:35:06;;;;;;;13.63;5.20;;;;;;;11.77;82.63;97512.66;4963406;28;20234;-55
2023/03/31 04:37:33;;;;;;;15.00;5.60;;;;;;;11.64;85.00;97522.03;4964048;28;20449;-55
2023/03/31 04:40:07;;;;;;;21.53;8.73;;;;;;;11.62;87.04;97517.97;4963906;28;20701;-53
2023/03/31 04:42:35;;;;;;;12.90;6.33;;;;;;;11.52;87.04;97547.00;4967909;28;20300;-56
2023/03/31 04:45:02;;;;;;;15.40;6.63;;;;;;;11.33;90.95;97583.16;4964296;28;20239;-54
2023/03/31 04:47:29;;;;;;;14.97;7.43;;;;;;;11.28;92.93;97588.13;4966874;28;20230;-55
2023/03/31 04:49:55;;;;;;;12.83;4.80;;;;;;;11.28;91.18;97542.88;4963856;28;20223;-55
2023/03/31 04:52:27;;;;;;;14.50;5.43;;;;;;;11.24;93.17;97552.91;4969666;28;20695;-56
2023/03/31 04:54:56;;;;;;;21.17;9.00;;;;;;;11.11;98.94;97563.16;4958529;28;20317;-54
2023/03/31 04:57:22;;;;;;;19.90;9.03;;;;;;;10.99;100.00;97539.31;4970095;28;20285;-54
2023/03/31 04:59:50;;;;;;;17.57;6.10;;;;;;;10.90;100.00;97512.47;4972434;28;20232;-55
2023/03/31 05:02:22;;;;;;;13.30;5.97;;;;;;;10.82;100.00;97502.94;4970230;28;20248;-55
2023/03/31 05:04:49;;;;;;;22.70;9.83;;;;;;;10.75;100.00;97515.09;4970520;28;20346;-53
2023/03/31 05:07:16;;;;;;;23.97;12.30;;;;;;;10.69;100.00;97503.56;4969987;28;20278;-56
2023/03/31 05:09:43;;;;;;;20.23;8.10;;;;;;;10.64;100.00;97518.94;4970389;28;20234;-54
2023/03/31 05:12:10;;;;;;;19.80;11.80;;;;;;;10.63;100.00;97515.53;4969099;28;20292;-55
2023/03/31 05:14:37;;;;;;;17.90;9.53;;;;;;;10.66;100.00;97521.38;4970059;28;20243;-55
2023/03/31 05:17:05;;;;;;;20.73;13.03;;;;;;;10.63;100.00;97499.06;4966697;28;20234;-54
2023/03/31 05:19:32;;;;;;;13.63;6.73;;;;;;;10.63;100.00;97489.44;4970207;28;20246;-55
2023/03/31 05:21:58;;;;;;;17.53;9.63;;;;;;;10.64;100.00;97482.41;4968134;28;20590;-55
2023/03/31 05:24:27;;;;;;;15.17;7.60;;;;;;;10.56;100.00;97470.25;4970697;28;20229;-53
2023/03/31 05:26:54;;;;;;;16.60;7.47;;;;;;;10.57;100.00;97474.50;4970433;28;20313;-53
2023/03/31 05:29:21;;;;;;;11.00;6.17;;;;;;;10.58;100.00;97476.13;4970088;28;20225;-54
2023/03/31 05:31:48;;;;;;;12.70;6.33;;;;;;;10.55;100.00;97478.28;4969625;28;20629;-55
2023/03/31 05:34:16;;;;;;;14.10;5.53;;;;;;;10.57;100.00;97484.94;4968974;28;20224;-55
2023/03/31 05:36:43;;;;;;;14.57;6.00;;;;;;;10.62;100.00;97473.94;4969878;28;20228;-55
2023/03/31 05:39:10;;;;;;;13.13;5.30;;;;;;;10.63;100.00;97472.97;4967232;28;20295;-56
2023/03/31 05:41:36;;;;;;;12.10;5.70;;;;;;;10.63;100.00;97475.56;4969407;28;20237;-53
2023/03/31 05:44:03;;;;;;;13.80;6.23;;;;;;;10.56;100.00;97456.44;4966078;28;20245;-55
2023/03/31 05:46:29;;;;;;;18.10;6.20;;;;;;;10.54;100.00;97458.41;4971674;28;20693;-55
2023/03/31 05:48:57;;;;;;;13.23;5.67;;;;;;;10.55;100.00;97447.78;4966542;28;20750;-54
2023/03/31 05:51:25;;;;;;;15.53;6.03;;;;;;;10.54;100.00;97440.13;4970959;28;20324;-55
2023/03/31 05:53:52;;;;;;;10.60;5.63;;;;;;;10.53;100.00;97425.47;4966663;28;20224;-55
2023/03/31 05:56:18;;;;;;;11.57;5.37;;;;;;;10.56;100.00;97417.28;4969790;28;20277;-55
2023/03/31 05:58:47;;;;;;;13.80;6.73;;;;;;;10.50;100.00;97405.75;4969253;28;20243;-56
2023/03/31 06:01:19;;;;;;;16.10;6.57;;;;;;;10.52;100.00;97429.06;4968844;28;20246;-54
2023/03/31 06:03:48;;;;;;;13.13;7.35;;;;;;;10.44;100.00;97433.38;4966844;28;20528;-52
2023/03/31 06:06:16;;;;;;;15.10;8.57;;;;;;;10.40;100.00;97446.94;4965227;28;20296;-55
2023/03/31 06:08:45;;;;;;;17.03;7.50;;;;;;;10.38;100.00;97490.63;4969224;28;20251;-52
2023/03/31 06:11:14;;;;;;;20.30;8.23;;;;;;;10.25;100.00;97496.47;4966629;28;20240;-53
2023/03/31 06:13:41;;;;;;;15.93;6.73;;;;;;;10.08;100.00;97527.06;4967552;28;20233;-54
2023/03/31 06:16:10;;;;;;;15.70;8.17;;;;;;;9.96;100.00;97550.13;4966947;28;20663;-53
2023/03/31 06:18:36;;;;;;;18.10;7.43;;;;;;;9.98;100.00;97519.50;4968833;28;20240;-52
2023/03/31 06:21:04;;;;;;;14.53;6.90;;;;;;;9.93;100.00;97493.97;4966114;28;20229;-52
2023/03/31 06:23:31;;;;;;;9.00;6.00;;;;;;;9.99;100.00;97482.84;4969439;28;20324;-52
2023/03/31 06:26:02;;;;;;;10.00;3.90;;;;;;;10.01;100.00;97483.47;4966601;28;20241;-54
2023/03/31 06:28:29;;;;;;;6.50;4.20;;;;;;;10.09;100.00;97508.66;4969268;28;20521;-52
2023/03/31 06:31:01;;;;;;;11.67;6.07;;;;;;;10.11;100.00;97524.94;4967889;28;20229;-54
2023/03/31 06:33:27;;;;;;;13.90;5.33;;;;;;;10.09;100.00;97500.00;4969819;28;20232;-53
2023/03/31 06:35:56;;;;;;;10.77;6.80;;;;;;;10.07;100.00;97484.56;4970138;28;20314;-55
2023/03/31 06:38:23;;;;;;;8.60;4.47;;;;;;;10.10;100.00;97426.00;4971919;28;20525;-54
2023/03/31 06:40:49;;;;;;;9.60;5.30;;;;;;;10.06;100.00;97432.59;4970243;28;20300;-54
2023/03/31 06:43:17;;;;;;;5.07;2.17;;;;;;;10.10;100.00;97437.25;4970437;28;20261;-54
2023/03/31 06:45:44;;;;;;;5.70;2.30;;;;;;;10.12;100.00;97445.72;4967845;28;20259;-53
2023/03/31 06:48:11;;;;;;;4.30;2.17;;;;;;;10.22;100.00;97424.59;4966977;28;20236;-52
2023/03/31 06:50:38;;;;;;;4.63;2.70;;;;;;;10.23;100.00;97441.06;4970198;28;20240;-55
2023/03/31 06:53:07;;;;;;;5.43;1.70;;;;;;;10.24;99.50;97450.50;4968610;28;20239;-54
2023/03/31 06:55:34;;;;;;;4.23;1.93;;;;;;;10.26;96.72;97456.34;4967746;28;20233;-55
2023/03/31 06:58:01;;;;;;;2.03;1.43;;;;;;;10.26;95.51;97474.63;4965110;28;20240;-52
2023/03/31 07:00:30;;;;;;;4.80;1.77;;;;;;;10.24;95.03;97492.22;4967714;28;20284;-53
2023/03/31 07:02:57;;;;;;;8.47;2.30;;;;;;;10.17;94.98;97508.59;4966906;28;20241;-54
2023/03/31 07:05:26;;;;;;;4.70;1.60;;;;;;;10.16;94.69;97500.94;4968786;28;20232;-54
2023/03/31 07:07:52;;;;;;;3.97;1.53;;;;;;;10.24;92.50;97493.03;4965980;28;20236;-55
2023/03/31 07:10:20;;;;;;;4.77;1.80;;;;;;;10.36;92.24;97492.59;4968671;28;20246;-54
2023/03/31 07:12:46;;;;;;;11.17;6.63;;;;;;;10.39;94.38;97489.66;4968032;28;20315;-53
2023/03/31 07:15:13;;;;;;;3.03;1.30;;;;;;;10.59;87.82;97479.56;4965968;28;20292;-52
2023/03/31 07:17:41;;;;;;;3.23;1.30;;;;;;;10.59;89.11;97503.03;4968659;28;20246;-53
2023/03/31 07:20:11;;;;;;;5.83;2.30;;;;;;;10.58;86.92;97509.25;4964062;28;20267;-54
2023/03/31 07:22:38;;;;;;;5.83;1.07;;;;;;;10.79;85.16;97505.91;4969748;28;20781;-53
2023/03/31 07:25:05;;;;;;;3.80;0.87;;;;;;;10.90;83.98;97468.91;4967617;28;20240;-54
2023/03/31 07:27:31;;;;;;;11.60;4.47;;;;;;;10.90;88.06;97499.44;4968885;28;20767;-54
2023/03/31 07:29:58;;;;;;;6.60;2.10;;;;;;;11.02;82.71;97494.56;4965611;28;20226;-54
2023/03/31 07:32:25;;;;;;;4.77;1.30;;;;;;;11.16;85.55;97485.88;4967268;28;20266;-52
2023/03/31 07:34:52;;;;;;;10.40;4.20;;;;;;;11.19;85.18;97482.13;4965339;28;20230;-52
2023/03/31 07:37:19;;;;;;;3.40;1.03;;;;;;;11.36;84.59;97482.69;4968228;28;20239;-54
2023/03/31 07:39:46;;;;;;;5.40;1.60;;;;;;;11.48;83.60;97486.44;4967287;28;20665;-53
2023/03/31 07:42:12;;;;;;;10.07;1.63;;;;;;;11.37;84.82;97479.91;4968000;28;20267;-55
2023/03/31 07:44:39;;;;;;;10.47;4.77;;;;;;;11.36;85.31;97499.19;4966710;28;20702;-54
2023/03/31 07:47:05;;;;;;;6.63;1.83;;;;;;;11.50;83.86;97487.06;4965270;28;20217;-54
2023/03/31 07:49:33;;;;;;;5.43;1.77;;;;;;;11.63;83.88;97496.06;4967470;28;20979;-53
2023/03/31 07:52:01;;;;;;;14.47;4.03;;;;;;;11.75;81.66;97468.44;4964733;28;20241;-52
2023/03/31 07:54:28;;;;;;;7.23;1.97;;;;;;;11.93;81.18;97473.22;4967650;28;20296;-52
2023/03/31 07:56:55;;;;;;;4.13;1.90;;;;;;;12.07;81.30;97481.19;4965053;28;20295;-55
2023/03/31 07:59:21;;;;;;;7.97;2.63;;;;;;;11.88;82.16;97485.25;4968777;28;20584;-52
2023/03/31 08:01:48;;;;;;;8.27;1.53;;;;;;;11.69;80.51;97481.41;4966833;28;20234;-54
2023/03/31 08:04:15;;;;;;;9.47;2.67;;;;;;;12.01;81.25;97485.38;4962735;28;20243;-54
2023/03/31 08:06:41;;;;;;;10.40;4.93;;;;;;;11.93;84.33;97478.44;4968107;28;20234;-55
2023/03/31 08:09:09;;;;;;;6.70;1.30;;;;;;;12.15;81.65;97482.88;4965210;28;20239;-55
2023/03/31 08:11:36;;;;;;;13.07;4.03;;;;;;;12.26;81.09;97477.09;4967281;28;20892;-53
2023/03/31 08:14:02;;;;;;;3.97;1.30;;;;;;;12.08;81.53;97477.59;4963611;28;20653;-54
2023/03/31 08:16:29;;;;;;;4.13;1.30;;;;;;;11.95;81.09;97484.28;4966507;28;20225;-54
2023/03/31 08:18:55;;;;;;;7.53;2.00;;;;;;;11.89;80.77;97474.56;4963849;28;20246;-55
2023/03/31 08:21:22;;;;;;;4.00;1.40;;;;;;;11.94;82.01;97477.44;4966927;28;20242;-53
2023/03/31 08:23:49;;;;;;;4.27;1.40;;;;;;;12.12;79.16;97481.44;4965568;28;20280;-55
2023/03/31 08:26:17;;;;;;;5.43;1.50;;;;;;;12.26;80.45;97477.09;4967480;28;20251;-54
2023/03/31 08:28:44;;;;;;;5.30;1.20;;;;;;;12.30;80.39;97478.34;4967064;28;20771;-54
2023/03/31 08:31:11;;;;;;;5.37;1.50;;;;;;;12.36;78.40;97477.59;4967680;28;20712;-55
2023/03/31 08:33:38;;;;;;;5.20;1.60;;;;;;;12.29;79.59;97502.09;4968971;28;20810;-55
2023/03/31 08:36:09;;;;;;;6.80;1.23;;;;;;;12.29;80.15;97495.03;4966181;28;20237;-52
2023/03/31 08:38:36;;;;;;;2.87;1.20;;;;;;;12.37;79.90;97488.88;4969940;28;20245;-53
2023/03/31 08:41:06;;;;;;;1.90;1.07;;;;;;;12.44;77.17;97505.44;4964657;28;20291;-55
2023/03/31 08:43:40;;;;;;;3.80;1.07;;;;;;;12.34;79.42;97495.28;4966476;28;20256;-55
2023/03/31 08:46:12;;;;;;;4.70;1.17;;;;;;;12.69;78.72;97497.16;4953654;28;20296;-55
2023/03/31 08:48:44;;;;;;;4.37;1.40;;;;;;;12.69;78.11;97497.16;4939296;28;20229;-54
2023/03/31 08:51:19;;;;;;;3.80;1.17;;;;;;;12.67;76.54;97473.75;4964084;28;20235;-54
2023/03/31 08:53:52;;;;;;;3.43;1.20;;;;;;;13.08;76.65;97481.84;4962848;28;20224;-54
2023/03/31 08:56:22;;;;;;;3.47;1.40;;;;;;;12.70;78.28;97488.28;4964995;28;20288;-54
2023/03/31 08:58:51;;;;;;;7.43;1.50;;;;;;;12.80;76.93;97470.41;4964032;28;20232;-53
2023/03/31 09:01:27;;;;;;;5.37;1.37;;;;;;;12.76;74.89;97466.56;4964247;28;20575;-56
2023/03/31 09:04:16;;;;;;;4.67;1.47;;;;;;;12.47;77.84;97451.91;4963205;28;20324;-55
2023/03/31 09:06:52;;;;;;;6.73;1.83;;;;;;;12.40;77.42;97447.44;4966414;28;20264;-54
2023/03/31 09:09:27;;;;;;;6.43;1.63;;;;;;;12.42;78.91;97441.19;4964000;28;20230;-55
2023/03/31 09:12:00;;;;;;;6.60;1.40;;;;;;;12.36;77.89;97443.56;4962516;28;20286;-54
2023/03/31 09:14:38;;;;;;;7.60;1.60;;;;;;;12.22;78.88;97429.59;4965530;28;20240;-53
2023/03/31 09:17:19;;;;;;;4.63;1.20;;;;;;;12.25;76.15;97434.44;4964049;28;20323;-53
2023/03/31 09:19:52;;;;;;;7.10;1.67;;;;;;;12.24;76.51;97427.59;4965454;28;20228;-54
2023/03/31 09:22:22;;;;;;;8.63;1.90;;;;;;;12.45;75.59;97425.94;4966243;28;20236;-54
2023/03/31 09:24:54;;;;;;;6.77;1.53;;;;;;;12.37;75.98;97408.56;4978090;28;20232;-55
2023/03/31 09:27:22;;;;;;;8.00;1.47;;;;;;;12.38;76.00;97407.56;4964423;28;20233;-54
2023/03/31 09:29:55;;;;;;;7.03;1.80;;;;;;;12.48;74.44;97396.75;4959496;28;20240;-53
2023/03/31 09:32:24;;;;;;;8.97;1.40;;;;;;;12.50;74.84;97384.28;4963031;28;20244;-53
2023/03/31 09:34:53;;;;;;;8.10;1.90;;;;;;;12.53;74.60;97385.69;4961713;28;20645;-53
2023/03/31 09:37:20;;;;;;;4.07;1.33;;;;;;;12.67;73.44;97368.25;4966147;28;20291;-54
2023/03/31 09:39:46;;;;;;;12.17;2.17;;;;;;;12.81;72.78;97364.66;4965042;28;20246;-55
2023/03/31 09:42:14;;;;;;;4.63;1.60;;;;;;;12.92;73.86;97354.63;4964888;28;20297;-55
2023/03/31 09:44:44;;;;;;;9.33;1.40;;;;;;;13.04;71.10;97360.91;4970143;28;20242;-55
2023/03/31 09:47:17;;;;;;;10.37;1.77;;;;;;;13.06;72.63;97376.44;4965925;28;20589;-53
2023/03/31 09:49:46;;;;;;;9.70;1.80;;;;;;;13.36;71.08;97361.16;4969482;28;20241;-54
2023/03/31 09:52:27;;;;;;;8.53;2.33;;;;;;;13.74;68.92;97362.41;4966892;28;20585;-53
2023/03/31 09:54:57;;;;;;;13.77;3.87;;;;;;;13.84;68.71;97352.31;4964968;28;20238;-54
2023/03/31 09:57:27;;;;;;;61.17;25.37;;;;;;;14.29;67.65;97356.88;4968979;28;20239;-55
2023/03/31 10:00:01;;;;;;;11.60;4.73;;;;;;;14.61;64.67;97369.31;4966479;28;20234;-56
2023/03/31 10:02:39;;;;;;;7.23;1.67;;;;;;;14.73;64.67;97374.75;4968701;28;20246;-58
2023/03/31 10:05:07;;;;;;;6.53;1.50;;;;;;;14.55;63.35;97370.13;4965545;28;20307;-56
2023/03/31 10:07:34;;;;;;;6.03;2.00;;;;;;;14.64;62.02;97376.78;4968486;28;20275;-56
2023/03/31 10:10:02;;;;;;;6.37;1.60;;;;;;;14.52;61.19;97384.50;4964498;28;20247;-54
2023/03/31 10:12:30;;;;;;;6.73;1.50;;;;;;;14.42;63.74;97363.13;4967256;28;20335;-55
2023/03/31 10:15:12;;;;;;;11.98;1.80;;;;;;;14.03;57.71;97349.88;4962988;28;20450;-55
2023/03/31 10:17:41;;;;;;;10.30;1.70;;;;;;;13.46;61.21;97362.63;4969988;28;20288;-55
2023/03/31 10:20:20;;;;;;;7.13;1.70;;;;;;;13.35;64.70;97341.22;4964598;28;20243;-53
2023/03/31 10:22:47;;;;;;;7.90;1.67;;;;;;;13.24;63.05;97345.25;4966866;28;20241;-55
2023/03/31 10:25:17;;;;;;;7.93;1.60;;;;;;;12.92;61.61;97354.63;4967661;28;20293;-53
2023/03/31 10:27:47;;;;;;;10.13;1.97;;;;;;;12.83;62.17;97396.69;4966735;28;20238;-55
2023/03/31 10:30:20;;;;;;;7.77;1.93;;;;;;;12.49;66.73;97434.19;4964157;28;20244;-52
2023/03/31 10:32:48;;;;;;;5.03;1.10;;;;;;;11.85;71.46;97527.44;4966604;28;20245;-54
2023/03/31 10:35:24;;;;;;;2.83;0.80;;;;;;;11.14;78.42;97563.59;4961319;28;20241;-53
2023/03/31 10:37:54;;;;;;;3.27;0.57;;;;;;;10.27;86.27;97572.72;4965114;28;20236;-54
2023/03/31 10:40:25;;;;;;;1.80;0.33;;;;;;;9.95;87.52;97548.50;4970183;28;20241;-54
2023/03/31 10:43:01;;;;;;;0.93;0.30;;;;;;;9.56;90.53;97545.78;4967214;28;20248;-53
2023/03/31 10:45:30;;;;;;;6.13;0.80;;;;;;;9.06;96.57;97487.94;4968786;28;20231;-52
2023/03/31 10:48:00;;;;;;;1.37;0.50;;;;;;;9.14;100.00;97520.94;4964280;28;20232;-54
2023/03/31 10:50:29;;;;;;;2.47;0.40;;;;;;;9.05;100.00;97503.72;4967217;28;20231;-54
2023/03/31 10:53:03;;;;;;;3.03;0.40;;;;;;;9.04;100.00;97525.53;4964226;28;20250;-54
2023/03/31 10:55:35;;;;;;;3.37;0.47;;;;;;;9.12;100.00;97528.09;4967136;28;20715;-53
2023/03/31 10:58:09;;;;;;;1.27;0.30;;;;;;;9.22;96.71;97501.84;4964196;28;20227;-53
2023/03/31 11:00:43;;;;;;;2.37;0.77;;;;;;;9.28;100.00;97512.41;4967370;28;20238;-54
2023/03/31 11:03:42;;;;;;;2.97;0.50;;;;;;;9.29;100.00;97500.19;4964594;28;20236;-54
2023/03/31 11:06:15;;;;;;;4.00;0.40;;;;;;;9.55;100.00;97507.69;4966010;28;20235;-55
2023/03/31 11:08:51;;;;;;;1.17;0.57;;;;;;;9.85;96.27;97488.81;4966522;28;20633;-54
2023/03/31 11:11:32;;;;;;;1.83;0.50;;;;;;;10.02;93.61;97481.66;4979989;28;20233;-53
2023/03/31 11:14:06;;;;;;;1.57;0.40;;;;;;;10.44;91.24;97466.47;4964074;28;20605;-56
2023/03/31 11:16:43;;;;;;;4.63;0.57;;;;;;;10.44;89.19;97469.91;4967004;28;20228;-55
2023/03/31 11:19:28;;;;;;;0.90;0.30;;;;;;;10.64;85.63;97469.34;4967096;28;20302;-53
2023/03/31 11:22:04;;;;;;;3.90;0.40;;;;;;;10.68;83.04;97462.00;4966253;28;20240;-54
2023/03/31 11:25:10;;;;;;;0.50;0.20;;;;;;;10.72;85.19;97456.22;4967050;28;20239;-55
2023/03/31 11:27:53;;;;;;;1.30;0.40;;;;;;;11.00;81.48;97431.28;4964546;28;20251;-54
2023/03/31 11:30:24;;;;;;;0.70;0.30;;;;;;;11.41;79.00;97425.47;4964296;28;20266;-55
2023/03/31 11:33:08;;;;;;;0.73;0.20;;;;;;;11.43;78.06;97420.88;4963684;28;20563;-53
2023/03/31 11:35:49;;;;;;;2.80;0.40;;;;;;;11.71;77.71;97421.91;4966051;28;20247;-54
2023/03/31 11:38:44;;;;;;;3.43;0.40;;;;;;;11.85;74.42;97412.41;4965384;28;20244;-55
2023/03/31 11:41:15;;;;;;;3.13;0.50;;;;;;;12.02;74.27;97415.56;4961994;28;20729;-56
2023/03/31 11:43:46;;;;;;;1.53;0.43;;;;;;;11.88;74.56;97436.34;4966316;28;20233;-54
2023/03/31 11:46:17;;;;;;;1.13;0.40;;;;;;;11.37;72.81;97430.28;4964324;28;20237;-53
2023/03/31 11:48:47;;;;;;;4.40;1.03;;;;;;;11.47;71.83;97432.56;4967918;28;20237;-54
2023/03/31 11:51:19;;;;;;;5.43;1.00;;;;;;;11.85;67.54;97421.03;4965316;28;20233;-53
2023/03/31 11:53:51;;;;;;;5.67;0.67;;;;;;;11.76;70.58;97430.84;4964562;28;20263;-54